sensor_id;sensor_type;location;lat;lon;timestamp;pressure;altitude;pressure_sealevel;temperature;humidity
38616;BME280;24370;51.986;4.666;2023-03-16T00:02:06;101778.91;;;13.03;41.67
38616;BME280;24370;51.986;4.666;2023-03-16T00:04:31;101772.00;;;12.93;41.08
38616;BME280;24370;51.986;4.666;2023-03-16T00:07:08;101778.28;;;12.52;41.89
38616;BME280;24370;51.986;4.666;2023-03-16T00:09:33;101766.84;;;12.71;42.31
38616;BME280;24370;51.986;4.666;2023-03-16T00:12:01;101763.09;;;13.16;40.91
38616;BME280;24370;51.986;4.666;2023-03-16T00:14:30;101760.41;;;13.31;40.42
38616;BME280;24370;51.986;4.666;2023-03-16T00:16:56;101758.72;;;13.19;40.64
38616;BME280;24370;51.986;4.666;2023-03-16T00:19:22;101750.81;;;13.24;40.83
38616;BME280;24370;51.986;4.666;2023-03-16T00:21:49;101758.81;;;13.05;41.67
38616;BME280;24370;51.986;4.666;2023-03-16T00:24:15;101752.63;;;13.13;41.25
38616;BME280;24370;51.986;4.666;2023-03-16T00:26:42;101741.41;;;12.89;42.24
38616;BME280;24370;51.986;4.666;2023-03-16T00:29:07;101746.50;;;13.14;41.01
38616;BME280;24370;51.986;4.666;2023-03-16T00:31:33;101752.84;;;12.74;41.96
38616;BME280;24370;51.986;4.666;2023-03-16T00:33:58;101754.59;;;12.70;42.77
38616;BME280;24370;51.986;4.666;2023-03-16T00:36:24;101753.66;;;12.90;42.13
38616;BME280;24370;51.986;4.666;2023-03-16T00:38:49;101740.25;;;13.33;41.09
38616;BME280;24370;51.986;4.666;2023-03-16T00:41:15;101738.91;;;12.64;42.75
38616;BME280;24370;51.986;4.666;2023-03-16T00:43:42;101735.50;;;12.33;42.60
38616;BME280;24370;51.986;4.666;2023-03-16T00:46:14;101727.38;;;12.88;42.31
38616;BME280;24370;51.986;4.666;2023-03-16T00:48:43;101726.66;;;12.55;42.95
38616;BME280;24370;51.986;4.666;2023-03-16T00:51:16;101716.06;;;12.85;42.76
38616;BME280;24370;51.986;4.666;2023-03-16T00:53:42;101713.44;;;12.85;43.31
38616;BME280;24370;51.986;4.666;2023-03-16T00:56:09;101712.34;;;13.18;42.08
38616;BME280;24370;51.986;4.666;2023-03-16T00:58:37;101718.72;;;12.82;42.83
38616;BME280;24370;51.986;4.666;2023-03-16T01:01:06;101713.53;;;12.63;43.44
38616;BME280;24370;51.986;4.666;2023-03-16T01:03:32;101706.50;;;12.71;43.41
38616;BME280;24370;51.986;4.666;2023-03-16T01:06:03;101710.13;;;12.49;44.09
38616;BME280;24370;51.986;4.666;2023-03-16T01:08:29;101703.94;;;12.65;43.53
38616;BME280;24370;51.986;4.666;2023-03-16T01:11:01;101695.91;;;12.87;43.61
38616;BME280;24370;51.986;4.666;2023-03-16T01:13:28;101699.75;;;12.12;45.29
38616;BME280;24370;51.986;4.666;2023-03-16T01:15:53;101693.84;;;13.32;43.20
38616;BME280;24370;51.986;4.666;2023-03-16T01:18:19;101698.94;;;13.60;42.14
38616;BME280;24370;51.986;4.666;2023-03-16T01:20:44;101694.13;;;12.95;43.16
38616;BME280;24370;51.986;4.666;2023-03-16T01:23:18;101691.72;;;12.53;43.72
38616;BME280;24370;51.986;4.666;2023-03-16T01:25:44;101685.34;;;12.99;43.60
38616;BME280;24370;51.986;4.666;2023-03-16T01:28:24;101687.16;;;12.94;43.47
38616;BME280;24370;51.986;4.666;2023-03-16T01:30:51;101678.03;;;13.45;43.19
38616;BME280;24370;51.986;4.666;2023-03-16T01:33:22;101682.53;;;13.29;43.12
38616;BME280;24370;51.986;4.666;2023-03-16T01:35:56;101678.84;;;13.51;42.99
38616;BME280;24370;51.986;4.666;2023-03-16T01:38:22;101678.19;;;13.23;43.91
38616;BME280;24370;51.986;4.666;2023-03-16T01:40:49;101672.13;;;13.16;43.60
38616;BME280;24370;51.986;4.666;2023-03-16T01:43:16;101657.53;;;12.73;44.44
38616;BME280;24370;51.986;4.666;2023-03-16T01:46:13;101652.94;;;13.05;44.09
38616;BME280;24370;51.986;4.666;2023-03-16T01:48:45;101661.56;;;13.21;43.75
38616;BME280;24370;51.986;4.666;2023-03-16T01:53:53;101649.72;;;12.63;44.92
38616;BME280;24370;51.986;4.666;2023-03-16T01:56:21;101644.97;;;13.19;44.12
38616;BME280;24370;51.986;4.666;2023-03-16T01:58:49;101640.00;;;12.79;45.37
38616;BME280;24370;51.986;4.666;2023-03-16T02:01:16;101643.22;;;13.18;44.48
38616;BME280;24370;51.986;4.666;2023-03-16T02:03:43;101643.34;;;13.02;44.61
38616;BME280;24370;51.986;4.666;2023-03-16T02:06:17;101643.84;;;12.05;46.85
38616;BME280;24370;51.986;4.666;2023-03-16T02:08:44;101642.84;;;12.38;46.64
38616;BME280;24370;51.986;4.666;2023-03-16T02:11:12;101634.03;;;12.52;46.63
38616;BME280;24370;51.986;4.666;2023-03-16T02:13:43;101632.53;;;11.98;47.49
38616;BME280;24370;51.986;4.666;2023-03-16T02:16:08;101628.16;;;11.97;49.06
38616;BME280;24370;51.986;4.666;2023-03-16T02:18:35;101624.34;;;12.63;47.84
38616;BME280;24370;51.986;4.666;2023-03-16T02:23:29;101619.28;;;12.32;48.40
38616;BME280;24370;51.986;4.666;2023-03-16T02:29:39;101615.88;;;12.07;48.91
38616;BME280;24370;51.986;4.666;2023-03-16T02:32:04;101610.50;;;12.43;49.12
38616;BME280;24370;51.986;4.666;2023-03-16T02:34:30;101609.72;;;12.22;49.88
38616;BME280;24370;51.986;4.666;2023-03-16T02:36:56;101604.56;;;11.93;51.20
38616;BME280;24370;51.986;4.666;2023-03-16T02:39:23;101607.13;;;12.13;50.46
38616;BME280;24370;51.986;4.666;2023-03-16T02:41:48;101599.28;;;12.10;49.97
38616;BME280;24370;51.986;4.666;2023-03-16T02:44:20;101599.25;;;12.13;50.44
38616;BME280;24370;51.986;4.666;2023-03-16T02:46:48;101592.72;;;12.88;49.39
38616;BME280;24370;51.986;4.666;2023-03-16T02:49:37;101604.97;;;12.89;49.10
38616;BME280;24370;51.986;4.666;2023-03-16T02:52:05;101601.72;;;12.47;49.67
38616;BME280;24370;51.986;4.666;2023-03-16T02:54:30;101607.13;;;12.13;50.62
38616;BME280;24370;51.986;4.666;2023-03-16T02:56:56;101597.19;;;12.72;50.14
38616;BME280;24370;51.986;4.666;2023-03-16T02:59:21;101600.03;;;12.39;50.25
38616;BME280;24370;51.986;4.666;2023-03-16T03:01:47;101599.88;;;12.64;50.98
38616;BME280;24370;51.986;4.666;2023-03-16T03:04:12;101603.72;;;11.95;51.56
38616;BME280;24370;51.986;4.666;2023-03-16T03:06:38;101593.06;;;12.35;51.04
38616;BME280;24370;51.986;4.666;2023-03-16T03:09:04;101585.22;;;12.26;52.37
38616;BME280;24370;51.986;4.666;2023-03-16T03:11:29;101590.47;;;12.25;53.07
38616;BME280;24370;51.986;4.666;2023-03-16T03:13:55;101600.78;;;12.59;51.49
38616;BME280;24370;51.986;4.666;2023-03-16T03:16:21;101598.25;;;12.42;52.11
38616;BME280;24370;51.986;4.666;2023-03-16T03:18:47;101587.53;;;12.79;50.96
38616;BME280;24370;51.986;4.666;2023-03-16T03:21:13;101584.66;;;13.13;50.12
38616;BME280;24370;51.986;4.666;2023-03-16T03:23:38;101577.19;;;12.60;50.91
38616;BME280;24370;51.986;4.666;2023-03-16T03:26:04;101576.16;;;12.78;50.22
38616;BME280;24370;51.986;4.666;2023-03-16T03:28:30;101575.22;;;12.90;51.12
38616;BME280;24370;51.986;4.666;2023-03-16T03:30:58;101583.28;;;12.59;50.96
38616;BME280;24370;51.986;4.666;2023-03-16T03:33:25;101570.66;;;13.09;50.57
38616;BME280;24370;51.986;4.666;2023-03-16T03:35:55;101568.91;;;13.11;49.33
38616;BME280;24370;51.986;4.666;2023-03-16T03:38:21;101567.31;;;13.83;47.79
38616;BME280;24370;51.986;4.666;2023-03-16T03:40:51;101569.72;;;13.18;49.42
38616;BME280;24370;51.986;4.666;2023-03-16T03:43:16;101573.19;;;13.23;48.99
38616;BME280;24370;51.986;4.666;2023-03-16T03:45:42;101568.31;;;12.77;49.24
38616;BME280;24370;51.986;4.666;2023-03-16T03:48:07;101560.78;;;13.44;48.24
38616;BME280;24370;51.986;4.666;2023-03-16T03:50:32;101571.72;;;12.88;49.96
38616;BME280;24370;51.986;4.666;2023-03-16T03:52:58;101562.25;;;12.70;50.07
38616;BME280;24370;51.986;4.666;2023-03-16T03:55:23;101555.28;;;12.66;50.38
38616;BME280;24370;51.986;4.666;2023-03-16T03:57:49;101549.22;;;12.58;50.91
38616;BME280;24370;51.986;4.666;2023-03-16T04:00:15;101534.66;;;13.25;49.00
38616;BME280;24370;51.986;4.666;2023-03-16T04:02:44;101540.25;;;12.88;50.03
38616;BME280;24370;51.986;4.666;2023-03-16T04:05:09;101541.56;;;12.24;51.77
38616;BME280;24370;51.986;4.666;2023-03-16T04:07:35;101543.47;;;13.18;49.79
38616;BME280;24370;51.986;4.666;2023-03-16T04:10:00;101546.34;;;12.90;50.18
38616;BME280;24370;51.986;4.666;2023-03-16T04:12:26;101553.31;;;12.94;50.21
38616;BME280;24370;51.986;4.666;2023-03-16T04:14:51;101553.75;;;12.32;51.97
38616;BME280;24370;51.986;4.666;2023-03-16T04:17:17;101547.50;;;12.52;52.10
38616;BME280;24370;51.986;4.666;2023-03-16T04:19:42;101543.09;;;12.59;51.55
38616;BME280;24370;51.986;4.666;2023-03-16T04:22:07;101542.97;;;12.74;50.99
38616;BME280;24370;51.986;4.666;2023-03-16T04:24:33;101543.13;;;13.55;49.27
38616;BME280;24370;51.986;4.666;2023-03-16T04:26:59;101537.16;;;12.30;52.07
38616;BME280;24370;51.986;4.666;2023-03-16T04:29:25;101539.09;;;11.77;54.11
38616;BME280;24370;51.986;4.666;2023-03-16T04:31:50;101527.53;;;12.34;53.86
38616;BME280;24370;51.986;4.666;2023-03-16T04:34:18;101530.16;;;12.29;53.01
38616;BME280;24370;51.986;4.666;2023-03-16T04:36:43;101528.44;;;12.25;53.24
38616;BME280;24370;51.986;4.666;2023-03-16T04:39:09;101528.44;;;12.25;52.74
38616;BME280;24370;51.986;4.666;2023-03-16T04:41:34;101521.56;;;12.05;54.09
38616;BME280;24370;51.986;4.666;2023-03-16T04:44:00;101513.66;;;13.25;51.41
38616;BME280;24370;51.986;4.666;2023-03-16T04:46:25;101519.22;;;12.91;52.42
38616;BME280;24370;51.986;4.666;2023-03-16T04:48:51;101511.63;;;12.59;52.47
38616;BME280;24370;51.986;4.666;2023-03-16T04:51:17;101512.66;;;12.34;53.23
38616;BME280;24370;51.986;4.666;2023-03-16T04:53:42;101510.84;;;12.43;53.61
38616;BME280;24370;51.986;4.666;2023-03-16T04:56:09;101515.34;;;12.24;54.77
38616;BME280;24370;51.986;4.666;2023-03-16T04:58:42;101512.50;;;12.59;53.31
38616;BME280;24370;51.986;4.666;2023-03-16T05:01:08;101515.19;;;12.48;54.13
38616;BME280;24370;51.986;4.666;2023-03-16T05:03:33;101514.53;;;12.15;56.61
38616;BME280;24370;51.986;4.666;2023-03-16T05:05:59;101516.31;;;12.12;55.46
38616;BME280;24370;51.986;4.666;2023-03-16T05:08:25;101503.00;;;12.43;54.99
38616;BME280;24370;51.986;4.666;2023-03-16T05:10:50;101509.34;;;12.01;57.70
38616;BME280;24370;51.986;4.666;2023-03-16T05:13:15;101509.22;;;12.26;56.51
38616;BME280;24370;51.986;4.666;2023-03-16T05:15:41;101500.47;;;12.27;57.60
38616;BME280;24370;51.986;4.666;2023-03-16T05:18:06;101505.00;;;11.97;58.26
38616;BME280;24370;51.986;4.666;2023-03-16T05:20:32;101500.72;;;11.78;57.79
38616;BME280;24370;51.986;4.666;2023-03-16T05:22:57;101503.88;;;12.42;57.30
38616;BME280;24370;51.986;4.666;2023-03-16T05:25:23;101493.28;;;12.54;57.64
38616;BME280;24370;51.986;4.666;2023-03-16T05:27:50;101497.13;;;12.00;58.43
38616;BME280;24370;51.986;4.666;2023-03-16T05:30:16;101493.63;;;12.08;58.79
38616;BME280;24370;51.986;4.666;2023-03-16T05:32:43;101480.53;;;12.00;59.74
38616;BME280;24370;51.986;4.666;2023-03-16T05:35:09;101487.81;;;11.16;62.39
38616;BME280;24370;51.986;4.666;2023-03-16T05:37:38;101483.97;;;12.10;59.53
38616;BME280;24370;51.986;4.666;2023-03-16T05:40:06;101481.09;;;12.53;58.94
38616;BME280;24370;51.986;4.666;2023-03-16T05:42:46;101473.53;;;12.00;61.13
38616;BME280;24370;51.986;4.666;2023-03-16T05:45:13;101483.13;;;12.04;60.56
38616;BME280;24370;51.986;4.666;2023-03-16T05:47:39;101485.22;;;10.85;64.12
38616;BME280;24370;51.986;4.666;2023-03-16T05:50:06;101484.03;;;12.03;60.57
38616;BME280;24370;51.986;4.666;2023-03-16T05:52:34;101480.25;;;12.43;59.27
38616;BME280;24370;51.986;4.666;2023-03-16T05:54:59;101477.50;;;12.63;57.02
38616;BME280;24370;51.986;4.666;2023-03-16T05:57:25;101481.16;;;12.39;57.22
38616;BME280;24370;51.986;4.666;2023-03-16T05:59:50;101487.81;;;11.07;61.90
38616;BME280;24370;51.986;4.666;2023-03-16T06:02:17;101481.69;;;11.29;63.55
38616;BME280;24370;51.986;4.666;2023-03-16T06:04:42;101467.56;;;11.67;61.55
38616;BME280;24370;51.986;4.666;2023-03-16T06:07:07;101472.94;;;11.30;64.64
38616;BME280;24370;51.986;4.666;2023-03-16T06:09:33;101477.88;;;12.11;60.65
38616;BME280;24370;51.986;4.666;2023-03-16T06:11:58;101469.41;;;11.44;62.36
38616;BME280;24370;51.986;4.666;2023-03-16T06:14:23;101469.19;;;12.02;61.77
38616;BME280;24370;51.986;4.666;2023-03-16T06:16:49;101462.16;;;12.11;59.66
38616;BME280;24370;51.986;4.666;2023-03-16T06:19:15;101472.72;;;11.86;61.03
38616;BME280;24370;51.986;4.666;2023-03-16T06:21:41;101465.09;;;11.30;62.90
38616;BME280;24370;51.986;4.666;2023-03-16T06:24:07;101459.81;;;11.49;61.80
38616;BME280;24370;51.986;4.666;2023-03-16T06:26:34;101468.59;;;11.32;62.00
38616;BME280;24370;51.986;4.666;2023-03-16T06:28:59;101454.63;;;11.33;65.50
38616;BME280;24370;51.986;4.666;2023-03-16T06:31:25;101452.84;;;11.37;66.11
38616;BME280;24370;51.986;4.666;2023-03-16T06:33:50;101456.28;;;11.48;62.43
38616;BME280;24370;51.986;4.666;2023-03-16T06:36:16;101451.81;;;11.83;61.65
38616;BME280;24370;51.986;4.666;2023-03-16T06:38:41;101447.25;;;12.17;61.75
38616;BME280;24370;51.986;4.666;2023-03-16T06:41:07;101446.75;;;11.36;64.08
38616;BME280;24370;51.986;4.666;2023-03-16T06:43:32;101442.25;;;11.65;62.68
38616;BME280;24370;51.986;4.666;2023-03-16T06:45:58;101444.88;;;11.69;62.04
38616;BME280;24370;51.986;4.666;2023-03-16T06:48:23;101435.28;;;11.68;64.08
38616;BME280;24370;51.986;4.666;2023-03-16T06:50:49;101430.84;;;11.80;64.33
38616;BME280;24370;51.986;4.666;2023-03-16T06:53:14;101423.25;;;11.24;66.15
38616;BME280;24370;51.986;4.666;2023-03-16T06:55:39;101418.78;;;11.48;63.39
38616;BME280;24370;51.986;4.666;2023-03-16T06:58:06;101430.25;;;11.16;63.88
38616;BME280;24370;51.986;4.666;2023-03-16T07:00:31;101432.69;;;11.65;63.46
38616;BME280;24370;51.986;4.666;2023-03-16T07:02:59;101431.00;;;11.43;62.10
38616;BME280;24370;51.986;4.666;2023-03-16T07:05:26;101431.88;;;11.46;64.16
38616;BME280;24370;51.986;4.666;2023-03-16T07:07:51;101426.59;;;11.60;63.24
38616;BME280;24370;51.986;4.666;2023-03-16T07:10:17;101419.69;;;11.36;64.60
38616;BME280;24370;51.986;4.666;2023-03-16T07:12:43;101431.16;;;11.09;64.13
38616;BME280;24370;51.986;4.666;2023-03-16T07:15:09;101416.97;;;11.65;63.13
38616;BME280;24370;51.986;4.666;2023-03-16T07:17:36;101419.28;;;12.18;59.93
38616;BME280;24370;51.986;4.666;2023-03-16T07:20:02;101427.84;;;12.42;59.76
38616;BME280;24370;51.986;4.666;2023-03-16T07:22:29;101434.94;;;12.29;58.87
38616;BME280;24370;51.986;4.666;2023-03-16T07:24:55;101422.13;;;11.78;60.79
38616;BME280;24370;51.986;4.666;2023-03-16T07:27:24;101416.13;;;11.52;63.13
38616;BME280;24370;51.986;4.666;2023-03-16T07:29:50;101420.53;;;11.43;63.44
38616;BME280;24370;51.986;4.666;2023-03-16T07:32:19;101420.88;;;12.41;58.74
38616;BME280;24370;51.986;4.666;2023-03-16T07:34:44;101418.44;;;12.17;59.21
38616;BME280;24370;51.986;4.666;2023-03-16T07:37:10;101418.16;;;12.50;58.27
38616;BME280;24370;51.986;4.666;2023-03-16T07:39:36;101425.34;;;12.25;58.87
38616;BME280;24370;51.986;4.666;2023-03-16T07:42:01;101431.47;;;12.28;58.05
38616;BME280;24370;51.986;4.666;2023-03-16T07:44:28;101436.50;;;12.51;57.51
38616;BME280;24370;51.986;4.666;2023-03-16T07:46:53;101427.28;;;11.99;58.64
38616;BME280;24370;51.986;4.666;2023-03-16T07:49:19;101428.56;;;12.59;58.03
38616;BME280;24370;51.986;4.666;2023-03-16T07:51:44;101419.75;;;12.69;56.31
38616;BME280;24370;51.986;4.666;2023-03-16T07:54:10;101427.13;;;12.24;58.10
38616;BME280;24370;51.986;4.666;2023-03-16T07:56:35;101425.53;;;11.98;57.09
38616;BME280;24370;51.986;4.666;2023-03-16T07:59:01;101430.56;;;12.32;56.12
38616;BME280;24370;51.986;4.666;2023-03-16T08:01:27;101438.41;;;12.29;57.01
38616;BME280;24370;51.986;4.666;2023-03-16T08:03:52;101437.50;;;12.35;56.67
38616;BME280;24370;51.986;4.666;2023-03-16T08:06:18;101438.41;;;12.34;57.03
38616;BME280;24370;51.986;4.666;2023-03-16T08:08:44;101413.22;;;13.06;55.71
38616;BME280;24370;51.986;4.666;2023-03-16T08:11:10;101435.28;;;12.88;54.63
38616;BME280;24370;51.986;4.666;2023-03-16T08:13:35;101432.59;;;12.96;54.49
38616;BME280;24370;51.986;4.666;2023-03-16T08:16:01;101427.72;;;12.54;55.30
38616;BME280;24370;51.986;4.666;2023-03-16T08:18:27;101438.50;;;12.21;54.63
38616;BME280;24370;51.986;4.666;2023-03-16T08:20:55;101433.81;;;12.59;55.14
38616;BME280;24370;51.986;4.666;2023-03-16T08:23:21;101424.44;;;12.29;54.61
38616;BME280;24370;51.986;4.666;2023-03-16T08:25:51;101425.09;;;12.54;53.58
38616;BME280;24370;51.986;4.666;2023-03-16T08:28:16;101427.59;;;12.68;53.31
38616;BME280;24370;51.986;4.666;2023-03-16T08:30:47;101422.38;;;13.52;51.86
38616;BME280;24370;51.986;4.666;2023-03-16T08:33:14;101431.38;;;12.41;53.45
38616;BME280;24370;51.986;4.666;2023-03-16T08:35:42;101408.09;;;12.98;52.28
38616;BME280;24370;51.986;4.666;2023-03-16T08:38:09;101406.13;;;13.16;50.85
38616;BME280;24370;51.986;4.666;2023-03-16T08:40:35;101403.34;;;13.28;51.39
38616;BME280;24370;51.986;4.666;2023-03-16T08:43:00;101408.31;;;13.56;51.40
38616;BME280;24370;51.986;4.666;2023-03-16T08:45:26;101406.16;;;13.13;52.07
38616;BME280;24370;51.986;4.666;2023-03-16T08:47:52;101400.53;;;14.07;49.59
38616;BME280;24370;51.986;4.666;2023-03-16T08:50:18;101399.56;;;13.54;50.60
38616;BME280;24370;51.986;4.666;2023-03-16T08:52:45;101400.19;;;13.73;49.91
38616;BME280;24370;51.986;4.666;2023-03-16T08:55:10;101399.31;;;13.71;50.14
38616;BME280;24370;51.986;4.666;2023-03-16T08:57:37;101395.16;;;14.17;48.37
38616;BME280;24370;51.986;4.666;2023-03-16T09:00:06;101388.34;;;14.56;48.08
38616;BME280;24370;51.986;4.666;2023-03-16T09:02:42;101400.22;;;14.29;47.59
38616;BME280;24370;51.986;4.666;2023-03-16T09:05:09;101398.94;;;14.52;47.93
38616;BME280;24370;51.986;4.666;2023-03-16T09:07:36;101391.47;;;14.27;48.17
38616;BME280;24370;51.986;4.666;2023-03-16T09:10:03;101398.19;;;14.43;46.84
38616;BME280;24370;51.986;4.666;2023-03-16T09:12:30;101385.59;;;14.64;46.70
38616;BME280;24370;51.986;4.666;2023-03-16T09:14:55;101379.28;;;15.20;46.39
38616;BME280;24370;51.986;4.666;2023-03-16T09:17:21;101370.59;;;14.69;46.97
38616;BME280;24370;51.986;4.666;2023-03-16T09:19:46;101374.00;;;15.62;44.89
38616;BME280;24370;51.986;4.666;2023-03-16T09:22:12;101376.22;;;15.81;44.80
38616;BME280;24370;51.986;4.666;2023-03-16T09:24:37;101371.22;;;15.68;44.13
38616;BME280;24370;51.986;4.666;2023-03-16T09:27:03;101369.84;;;16.27;43.75
38616;BME280;24370;51.986;4.666;2023-03-16T09:29:29;101376.63;;;15.60;43.46
38616;BME280;24370;51.986;4.666;2023-03-16T09:31:55;101375.09;;;16.28;42.29
38616;BME280;24370;51.986;4.666;2023-03-16T09:34:20;101383.06;;;16.60;42.38
38616;BME280;24370;51.986;4.666;2023-03-16T09:36:46;101367.56;;;17.13;40.38
38616;BME280;24370;51.986;4.666;2023-03-16T09:39:12;101359.16;;;16.99;40.25
38616;BME280;24370;51.986;4.666;2023-03-16T09:42:15;101355.16;;;16.17;40.59
38616;BME280;24370;51.986;4.666;2023-03-16T09:45:12;101354.69;;;17.61;38.87
38616;BME280;24370;51.986;4.666;2023-03-16T09:47:39;101345.78;;;17.05;38.52
38616;BME280;24370;51.986;4.666;2023-03-16T09:50:08;101356.84;;;16.54;39.54
38616;BME280;24370;51.986;4.666;2023-03-16T09:53:00;101343.53;;;17.23;37.78
38616;BME280;24370;51.986;4.666;2023-03-16T09:55:30;101344.84;;;17.36;37.79
38616;BME280;24370;51.986;4.666;2023-03-16T09:57:58;101339.81;;;18.13;36.82
38616;BME280;24370;51.986;4.666;2023-03-16T10:00:37;101342.06;;;18.26;37.69
38616;BME280;24370;51.986;4.666;2023-03-16T10:03:44;101356.00;;;17.48;38.32
38616;BME280;24370;51.986;4.666;2023-03-16T10:06:15;101356.69;;;16.60;39.58
38616;BME280;24370;51.986;4.666;2023-03-16T10:08:52;101359.34;;;18.09;37.97
38616;BME280;24370;51.986;4.666;2023-03-16T10:11:29;101363.88;;;17.19;38.00
38616;BME280;24370;51.986;4.666;2023-03-16T10:14:44;101355.91;;;16.88;38.72
38616;BME280;24370;51.986;4.666;2023-03-16T10:16:51;101344.16;;;18.41;36.59
38616;BME280;24370;51.986;4.666;2023-03-16T10:19:24;101355.00;;;17.78;37.48
38616;BME280;24370;51.986;4.666;2023-03-16T10:21:56;101352.34;;;17.52;37.82
38616;BME280;24370;51.986;4.666;2023-03-16T10:26:56;101342.69;;;17.21;37.39
38616;BME280;24370;51.986;4.666;2023-03-16T10:29:27;101346.31;;;17.17;36.86
38616;BME280;24370;51.986;4.666;2023-03-16T10:32:04;101340.34;;;17.40;37.61
38616;BME280;24370;51.986;4.666;2023-03-16T10:34:32;101339.94;;;16.94;37.11
38616;BME280;24370;51.986;4.666;2023-03-16T10:36:59;101328.13;;;16.74;37.73
38616;BME280;24370;51.986;4.666;2023-03-16T10:39:34;101328.31;;;17.29;36.84
38616;BME280;24370;51.986;4.666;2023-03-16T10:42:00;101327.28;;;17.05;36.70
38616;BME280;24370;51.986;4.666;2023-03-16T10:44:28;101317.22;;;16.87;38.15
38616;BME280;24370;51.986;4.666;2023-03-16T10:47:03;101318.59;;;17.60;37.08
38616;BME280;24370;51.986;4.666;2023-03-16T10:49:39;101310.56;;;17.90;36.79
38616;BME280;24370;51.986;4.666;2023-03-16T10:54:56;101310.22;;;17.45;36.13
38616;BME280;24370;51.986;4.666;2023-03-16T10:57:43;101301.84;;;18.65;35.14
38616;BME280;24370;51.986;4.666;2023-03-16T11:00:19;101295.66;;;17.89;36.24
38616;BME280;24370;51.986;4.666;2023-03-16T11:02:47;101278.53;;;17.45;36.34
38616;BME280;24370;51.986;4.666;2023-03-16T11:08:14;101286.88;;;17.32;36.09
38616;BME280;24370;51.986;4.666;2023-03-16T11:10:45;101290.22;;;17.65;35.54
38616;BME280;24370;51.986;4.666;2023-03-16T11:13:17;101287.19;;;17.51;36.88
38616;BME280;24370;51.986;4.666;2023-03-16T11:20:49;101282.63;;;17.27;36.87
38616;BME280;24370;51.986;4.666;2023-03-16T11:23:16;101285.34;;;17.53;35.67
38616;BME280;24370;51.986;4.666;2023-03-16T11:25:44;101279.19;;;17.80;35.56
38616;BME280;24370;51.986;4.666;2023-03-16T11:28:59;101278.34;;;17.52;35.46
38616;BME280;24370;51.986;4.666;2023-03-16T11:32:19;101270.81;;;17.94;34.82
38616;BME280;24370;51.986;4.666;2023-03-16T11:34:29;101264.78;;;17.06;35.83
38616;BME280;24370;51.986;4.666;2023-03-16T11:37:14;101270.75;;;17.96;34.64
38616;BME280;24370;51.986;4.666;2023-03-16T11:39:57;101263.44;;;17.21;35.35
38616;BME280;24370;51.986;4.666;2023-03-16T11:42:32;101267.44;;;17.61;35.89
38616;BME280;24370;51.986;4.666;2023-03-16T11:47:58;101261.59;;;19.04;33.44
38616;BME280;24370;51.986;4.666;2023-03-16T11:50:37;101259.00;;;17.78;34.33
38616;BME280;24370;51.986;4.666;2023-03-16T11:59:04;101256.59;;;19.63;32.87
38616;BME280;24370;51.986;4.666;2023-03-16T12:07:59;101259.03;;;18.54;34.08
38616;BME280;24370;51.986;4.666;2023-03-16T12:13:34;101241.81;;;20.21;31.20
38616;BME280;24370;51.986;4.666;2023-03-16T12:18:50;101245.72;;;19.03;32.71
38616;BME280;24370;51.986;4.666;2023-03-16T12:21:24;101228.09;;;20.50;31.56
38616;BME280;24370;51.986;4.666;2023-03-16T12:24:03;101214.97;;;20.08;32.19
38616;BME280;24370;51.986;4.666;2023-03-16T12:26:35;101218.47;;;19.88;31.23
38616;BME280;24370;51.986;4.666;2023-03-16T12:29:34;101213.28;;;19.85;31.58
38616;BME280;24370;51.986;4.666;2023-03-16T12:32:11;101202.81;;;20.23;31.31
38616;BME280;24370;51.986;4.666;2023-03-16T12:34:47;101197.09;;;21.08;29.25
38616;BME280;24370;51.986;4.666;2023-03-16T12:40:07;101199.31;;;20.41;30.37
38616;BME280;24370;51.986;4.666;2023-03-16T12:42:55;101185.31;;;20.77;30.28
38616;BME280;24370;51.986;4.666;2023-03-16T12:45:51;101171.41;;;20.32;30.29
38616;BME280;24370;51.986;4.666;2023-03-16T12:48:27;101167.25;;;20.27;30.04
38616;BME280;24370;51.986;4.666;2023-03-16T12:50:59;101176.09;;;21.04;29.55
38616;BME280;24370;51.986;4.666;2023-03-16T12:56:09;101176.75;;;20.90;29.86
38616;BME280;24370;51.986;4.666;2023-03-16T12:58:40;101172.50;;;20.08;29.34
38616;BME280;24370;51.986;4.666;2023-03-16T13:01:10;101177.88;;;20.06;29.15
38616;BME280;24370;51.986;4.666;2023-03-16T13:03:36;101163.97;;;20.79;28.73
38616;BME280;24370;51.986;4.666;2023-03-16T13:06:03;101169.69;;;20.50;28.84
38616;BME280;24370;51.986;4.666;2023-03-16T13:08:40;101160.72;;;19.94;29.34
38616;BME280;24370;51.986;4.666;2023-03-16T13:11:09;101149.31;;;20.32;29.66
38616;BME280;24370;51.986;4.666;2023-03-16T13:13:47;101149.94;;;21.48;27.63
38616;BME280;24370;51.986;4.666;2023-03-16T13:16:23;101151.75;;;20.94;28.78
38616;BME280;24370;51.986;4.666;2023-03-16T13:18:51;101142.56;;;20.44;28.65
38616;BME280;24370;51.986;4.666;2023-03-16T13:21:33;101146.56;;;20.91;28.43
38616;BME280;24370;51.986;4.666;2023-03-16T13:26:45;101140.84;;;20.62;28.73
38616;BME280;24370;51.986;4.666;2023-03-16T13:29:24;101142.56;;;20.63;28.84
38616;BME280;24370;51.986;4.666;2023-03-16T13:31:51;101127.91;;;21.46;27.67
38616;BME280;24370;51.986;4.666;2023-03-16T13:34:21;101137.13;;;21.74;27.29
38616;BME280;24370;51.986;4.666;2023-03-16T13:36:52;101127.56;;;21.17;26.95
38616;BME280;24370;51.986;4.666;2023-03-16T13:39:25;101122.53;;;21.11;27.67
38616;BME280;24370;51.986;4.666;2023-03-16T13:41:55;101115.59;;;20.34;27.25
38616;BME280;24370;51.986;4.666;2023-03-16T13:44:22;101115.53;;;19.96;28.54
38616;BME280;24370;51.986;4.666;2023-03-16T13:46:49;101123.19;;;20.23;28.77
38616;BME280;24370;51.986;4.666;2023-03-16T13:49:18;101108.38;;;19.98;27.87
38616;BME280;24370;51.986;4.666;2023-03-16T13:51:44;101115.97;;;21.01;27.50